Etusivu
METAR-TAF:

METAR-TAF

Lentoasemat :

Greenville, Maine, Yhdysvallat

Leveyspiiri: 45-28N, Pituuspiiri: 069-35W, korkeus merenpinnasta: 427 m

Tämänhetkinen sää

Tämä raportti tehtiin 25 minuuttia sitten, kello 10.56 UTC
Tuuli 15 kn luoteesta puuskistuen 24 kn:hen
Lämpötila -7°C
Kosteus 73%
Ilmanpaine 1008 hPa

METAR: KGNR 061056Z AUTO 31015G24KT M07/M11 A2978 RMK AO1 PK WND 31029/1043 SLP107 T10721111

Aika: 06:21 (11:21 UTC)


TAF: puuttuu

Säähavainnot ja -ennusteet yli 4000 lentoasemalta (METAR- ja TAF-raportit).

Käytössä olevat sääasemat on merkitty karttaan keltaisilla ja punaisilla pisteillä.

Aseta hiiri pisteen päälle nähdäksesi sääaseman nimen.

Klikkaa sitten nähdäksesi säähavainnot ja -ennusteet.

Kartan vaihtaminen: klikkaa mustalla rastilla varustettuja vihreitä pisteitä, niin voit zoomata sisään; viivalla varustettua vihreää pistettä, niin voit zoomata ulos tai vihreitä nuolia, niin pääset viereisille kartoille.


METAR-TAF: